Time;durP1;ratioP1;P1;durP2;ratioP2;P2;SDS_P1;SDS_P2;PMS_P1;PMS_P2;Temp;Humidity;BMP_temperature;BMP_pressure;BME280_temperature;BME280_humidity;BME280_pressure;Samples;Min_cycle;Max_cycle;Signal;HPM_P1;HPM_P2
2023/10/29 00:01:40;;;;;;;11.23;8.00;;;10.10;1.00;;;;;;5137129;27;20477;-68
2023/10/29 00:04:07;;;;;;;8.83;7.93;;;10.10;1.00;;;;;;5131680;27;20484;-68
2023/10/29 00:06:34;;;;;;;10.57;8.87;;;10.00;1.00;;;;;;5129250;27;20464;-68
2023/10/29 00:09:01;;;;;;;11.37;7.97;;;10.00;1.00;;;;;;5138650;27;20460;-69
2023/10/29 00:11:28;;;;;;;11.33;7.37;;;10.00;1.00;;;;;;5143824;27;20548;-69
2023/10/29 00:13:58;;;;;;;10.37;7.50;;;10.00;1.00;;;;;;5148049;27;20974;-69
2023/10/29 00:16:25;;;;;;;12.93;7.57;;;10.00;1.00;;;;;;5153624;27;20467;-69
2023/10/29 00:18:52;;;;;;;10.73;7.50;;;10.00;1.00;;;;;;5146229;27;20496;-69
2023/10/29 00:21:18;;;;;;;10.23;6.73;;;10.00;1.00;;;;;;5137060;27;20947;-69
2023/10/29 00:23:45;;;;;;;8.90;6.63;;;10.00;1.00;;;;;;5153039;27;21089;-68
2023/10/29 00:26:12;;;;;;;9.40;6.60;;;9.90;1.00;;;;;;5129924;27;25525;-69
2023/10/29 00:28:39;;;;;;;9.00;7.00;;;9.90;1.00;;;;;;5136973;27;20508;-72
2023/10/29 00:31:08;;;;;;;8.73;7.30;;;9.90;1.00;;;;;;5138971;27;21021;-73
2023/10/29 00:33:35;;;;;;;11.30;5.97;;;9.90;1.00;;;;;;5131589;27;20488;-73
2023/10/29 00:36:02;;;;;;;11.37;6.20;;;9.90;1.00;;;;;;5147257;27;20477;-72
2023/10/29 00:38:29;;;;;;;9.73;5.77;;;9.90;1.00;;;;;;5139026;27;20936;-74
2023/10/29 00:40:56;;;;;;;8.17;5.40;;;9.90;1.00;;;;;;5137744;27;20539;-74
2023/10/29 00:43:23;;;;;;;8.23;6.00;;;9.90;1.00;;;;;;5152043;27;20538;-72
2023/10/29 00:45:53;;;;;;;7.80;5.53;;;9.90;1.00;;;;;;5152096;27;20487;-74
2023/10/29 00:48:22;;;;;;;5.30;4.67;;;9.90;1.00;;;;;;5154122;27;20560;-73
2023/10/29 00:50:49;;;;;;;9.23;4.73;;;9.90;1.00;;;;;;5154399;27;21024;-75
2023/10/29 00:53:16;;;;;;;5.97;4.80;;;9.90;1.00;;;;;;5148755;27;20999;-73
2023/10/29 00:55:44;;;;;;;4.93;4.33;;;10.00;1.00;;;;;;5144849;27;20996;-74
2023/10/29 00:58:12;;;;;;;6.03;4.47;;;10.00;1.00;;;;;;5130081;27;20492;-73
2023/10/29 01:00:40;;;;;;;6.37;4.37;;;9.90;1.00;;;;;;5134248;27;20996;-74
2023/10/29 01:03:07;;;;;;;5.00;4.50;;;9.80;1.00;;;;;;5148892;27;20542;-71
2023/10/29 01:05:36;;;;;;;5.87;4.70;;;9.80;1.00;;;;;;5136699;27;20465;-73
2023/10/29 01:08:05;;;;;;;6.30;4.80;;;9.80;1.00;;;;;;5131167;27;20463;-74
2023/10/29 01:10:32;;;;;;;11.23;5.43;;;9.80;1.00;;;;;;5144168;27;20543;-73
2023/10/29 01:12:59;;;;;;;6.50;4.50;;;9.80;1.00;;;;;;5152231;27;20620;-72
2023/10/29 01:15:26;;;;;;;6.37;5.77;;;9.80;1.00;;;;;;5148236;27;20514;-72
2023/10/29 01:17:53;;;;;;;6.03;4.83;;;9.90;1.00;;;;;;5126927;27;20475;-72
2023/10/29 01:20:20;;;;;;;5.43;4.70;;;9.90;1.00;;;;;;5131438;27;20451;-72
2023/10/29 01:22:49;;;;;;;5.87;4.53;;;9.80;1.00;;;;;;5132334;27;20468;-74
2023/10/29 01:25:15;;;;;;;5.37;4.87;;;9.80;1.00;;;;;;5151072;27;20576;-72
2023/10/29 01:27:42;;;;;;;7.00;4.70;;;9.80;1.00;;;;;;5148831;27;20460;-72
2023/10/29 01:30:10;;;;;;;6.13;4.60;;;9.80;1.00;;;;;;5138966;27;20588;-72
2023/10/29 01:32:37;;;;;;;6.43;4.73;;;9.80;1.00;;;;;;5144285;27;20487;-73
2023/10/29 01:35:05;;;;;;;8.70;5.87;;;9.80;1.00;;;;;;5137122;27;20460;-74
2023/10/29 01:37:32;;;;;;;6.87;4.70;;;9.80;1.00;;;;;;5135685;27;20476;-73
2023/10/29 01:40:00;;;;;;;6.60;4.30;;;9.80;1.00;;;;;;5149496;27;20535;-71
2023/10/29 01:42:27;;;;;;;7.23;5.57;;;9.80;1.00;;;;;;5130558;27;20992;-73
2023/10/29 01:44:54;;;;;;;4.90;4.30;;;9.80;1.00;;;;;;5137402;27;20456;-71
2023/10/29 01:47:21;;;;;;;6.60;5.13;;;9.80;1.00;;;;;;5146730;27;20456;-74
2023/10/29 01:49:47;;;;;;;6.13;4.20;;;9.80;1.00;;;;;;5136904;27;20564;-72
2023/10/29 01:52:14;;;;;;;4.97;3.93;;;9.90;1.00;;;;;;5153954;27;20544;-72
2023/10/29 01:54:42;;;;;;;8.33;5.20;;;9.90;1.00;;;;;;5143683;27;20554;-72
2023/10/29 01:57:10;;;;;;;6.60;4.40;;;9.90;1.00;;;;;;5146154;27;20489;-72
2023/10/29 01:59:37;;;;;;;8.53;4.60;;;9.90;1.00;;;;;;5129649;27;20868;-72
2023/10/29 02:02:05;;;;;;;6.50;4.90;;;9.90;1.00;;;;;;5128203;27;20587;-72
2023/10/29 02:04:33;;;;;;;5.90;4.70;;;9.90;1.00;;;;;;5125633;27;20545;-73
2023/10/29 02:07:00;;;;;;;6.47;4.63;;;9.90;1.00;;;;;;5125972;27;20557;-72
2023/10/29 02:09:28;;;;;;;7.53;4.70;;;9.90;1.00;;;;;;5143606;27;20959;-72
2023/10/29 02:11:54;;;;;;;6.00;4.80;;;9.90;1.00;;;;;;5133339;27;20476;-72
2023/10/29 02:14:23;;;;;;;4.73;4.33;;;9.90;1.00;;;;;;5151487;27;20891;-73
2023/10/29 02:16:51;;;;;;;5.80;4.87;;;9.90;1.00;;;;;;5148458;27;21403;-72
2023/10/29 02:19:18;;;;;;;7.90;5.27;;;10.00;1.00;;;;;;5139788;27;20470;-73
2023/10/29 02:21:45;;;;;;;5.67;4.80;;;10.00;1.00;;;;;;5134528;27;20964;-75
2023/10/29 02:24:13;;;;;;;6.50;4.70;;;10.00;1.00;;;;;;5127939;27;20548;-73
2023/10/29 02:26:40;;;;;;;5.93;5.33;;;10.10;1.00;;;;;;5127446;27;20471;-73
2023/10/29 02:29:07;;;;;;;6.70;5.50;;;10.10;1.00;;;;;;5128421;27;20559;-72
2023/10/29 02:31:34;;;;;;;9.03;5.03;;;10.10;1.00;;;;;;5125499;27;21326;-72
2023/10/29 02:34:01;;;;;;;7.03;5.40;;;10.10;1.00;;;;;;5127896;27;20453;-72
2023/10/29 02:36:27;;;;;;;6.70;5.73;;;10.10;1.00;;;;;;5126091;27;20556;-72
2023/10/29 02:38:54;;;;;;;6.17;5.57;;;10.10;1.00;;;;;;5129751;27;20461;-73
2023/10/29 02:41:23;;;;;;;7.10;6.13;;;10.20;1.00;;;;;;5128945;27;20449;-74
2023/10/29 02:43:50;;;;;;;6.23;5.20;;;10.20;1.00;;;;;;5128533;27;20449;-72
2023/10/29 02:46:17;;;;;;;5.43;4.93;;;10.20;1.00;;;;;;5148626;27;20460;-72
2023/10/29 02:48:44;;;;;;;6.60;5.40;;;10.20;1.00;;;;;;5138223;27;20449;-72
2023/10/29 02:51:12;;;;;;;6.50;5.80;;;10.30;1.00;;;;;;5123219;27;20449;-73
2023/10/29 02:53:39;;;;;;;7.10;6.40;;;10.30;1.00;;;;;;5129044;27;20969;-71
2023/10/29 02:56:07;;;;;;;6.90;5.47;;;10.30;1.00;;;;;;5129062;27;20991;-72
2023/10/29 02:58:35;;;;;;;6.07;5.53;;;10.20;1.00;;;;;;5129866;27;20510;-72
2023/10/29 03:01:06;;;;;;;7.50;5.90;;;10.20;1.00;;;;;;5128125;27;20433;-71
2023/10/29 03:03:33;;;;;;;7.80;5.93;;;10.20;1.00;;;;;;5128254;27;20467;-72
2023/10/29 03:06:04;;;;;;;6.40;5.80;;;10.20;1.00;;;;;;5135179;27;20599;-71
2023/10/29 03:08:31;;;;;;;5.47;4.97;;;10.20;1.00;;;;;;5137168;27;20459;-74
2023/10/29 03:10:58;;;;;;;6.87;5.23;;;10.10;1.00;;;;;;5147524;27;20591;-72
2023/10/29 03:13:25;;;;;;;6.50;5.57;;;10.20;1.00;;;;;;5128061;27;20651;-72
2023/10/29 03:15:53;;;;;;;5.80;5.30;;;10.20;1.00;;;;;;5129999;27;20548;-72
2023/10/29 03:18:21;;;;;;;7.93;5.77;;;10.20;1.00;;;;;;5125384;27;20445;-71
2023/10/29 03:20:48;;;;;;;7.57;6.00;;;10.30;1.00;;;;;;5127667;27;20602;-72
2023/10/29 03:23:15;;;;;;;5.73;4.50;;;10.30;1.00;;;;;;5124112;27;20461;-71
2023/10/29 03:25:44;;;;;;;9.43;5.07;;;10.20;1.00;;;;;;5127793;27;20587;-71
2023/10/29 03:28:12;;;;;;;5.50;5.00;;;10.10;1.00;;;;;;5143847;27;21464;-71
2023/10/29 03:30:39;;;;;;;5.00;4.50;;;10.10;1.00;;;;;;5143297;27;20444;-72
2023/10/29 03:33:07;;;;;;;6.60;5.00;;;10.10;1.00;;;;;;5148427;27;20484;-71
2023/10/29 03:35:34;;;;;;;8.57;5.23;;;10.00;1.00;;;;;;5147184;27;20483;-70
2023/10/29 03:38:01;;;;;;;6.70;4.20;;;10.10;1.00;;;;;;5136321;27;20453;-73
2023/10/29 03:40:29;;;;;;;6.87;5.30;;;10.10;1.00;;;;;;5143182;27;20505;-71
2023/10/29 03:42:56;;;;;;;5.83;4.37;;;10.20;1.00;;;;;;5139709;27;20459;-72
2023/10/29 03:45:23;;;;;;;6.30;4.70;;;10.20;1.00;;;;;;5136613;27;20461;-70
2023/10/29 03:47:50;;;;;;;5.33;4.83;;;10.20;1.00;;;;;;5125321;27;20489;-70
2023/10/29 03:50:18;;;;;;;5.43;4.70;;;10.30;1.00;;;;;;5150647;27;20778;-72
2023/10/29 03:52:45;;;;;;;7.03;4.67;;;10.30;1.00;;;;;;5146787;27;20543;-72
2023/10/29 03:55:12;;;;;;;5.67;4.40;;;10.20;1.00;;;;;;5147057;27;20467;-72
2023/10/29 03:57:39;;;;;;;6.20;3.90;;;10.20;1.00;;;;;;5150542;27;20547;-71
2023/10/29 04:00:07;;;;;;;5.40;4.13;;;10.30;1.00;;;;;;5145429;27;20492;-70
2023/10/29 04:02:34;;;;;;;6.73;5.10;;;10.30;1.00;;;;;;5127155;27;20495;-71
2023/10/29 04:05:01;;;;;;;4.53;4.10;;;10.30;1.00;;;;;;5125756;27;20545;-70
2023/10/29 04:07:30;;;;;;;6.67;4.20;;;10.30;1.00;;;;;;5129969;27;20540;-70
2023/10/29 04:09:57;;;;;;;4.00;3.27;;;10.20;1.00;;;;;;5127412;27;20483;-69
2023/10/29 04:12:26;;;;;;;6.40;3.60;;;10.20;1.00;;;;;;5140816;27;20893;-71
2023/10/29 04:14:53;;;;;;;7.03;4.27;;;10.20;1.00;;;;;;5146419;27;21002;-70
2023/10/29 04:17:21;;;;;;;11.20;4.30;;;10.20;1.00;;;;;;5148053;27;20444;-71
2023/10/29 04:19:48;;;;;;;4.60;3.73;;;10.20;1.00;;;;;;5140348;27;20512;-71
2023/10/29 04:22:15;;;;;;;5.30;3.80;;;10.20;1.00;;;;;;5148845;27;20468;-71
2023/10/29 04:24:43;;;;;;;6.87;3.43;;;10.20;1.00;;;;;;5148337;27;20495;-70
2023/10/29 04:27:10;;;;;;;5.63;4.40;;;10.30;1.00;;;;;;5147764;27;20449;-68
2023/10/29 04:29:38;;;;;;;4.23;3.83;;;10.20;1.00;;;;;;5144245;27;20459;-69
2023/10/29 04:32:05;;;;;;;5.43;3.27;;;10.20;1.00;;;;;;5147981;27;20491;-73
2023/10/29 04:34:33;;;;;;;4.33;3.70;;;10.30;1.00;;;;;;5126425;27;20551;-71
2023/10/29 04:37:00;;;;;;;5.33;3.30;;;10.30;1.00;;;;;;5145014;27;20456;-72
2023/10/29 04:39:27;;;;;;;6.77;4.37;;;10.20;1.00;;;;;;5149762;27;20662;-72
2023/10/29 04:41:55;;;;;;;4.10;3.40;;;10.20;1.00;;;;;;5128736;27;20574;-71
2023/10/29 04:44:22;;;;;;;3.43;2.87;;;10.20;1.00;;;;;;5126200;27;20545;-71
2023/10/29 04:46:49;;;;;;;5.33;3.40;;;10.20;1.00;;;;;;5127932;27;20544;-69
2023/10/29 04:49:16;;;;;;;5.37;3.73;;;10.20;1.00;;;;;;5124812;27;20456;-70
2023/10/29 04:51:43;;;;;;;7.90;4.00;;;10.30;1.00;;;;;;5139747;27;21249;-71
2023/10/29 04:54:11;;;;;;;8.70;3.90;;;10.20;1.00;;;;;;5145793;27;20584;-70
2023/10/29 04:56:38;;;;;;;5.97;4.13;;;10.20;1.00;;;;;;5140694;27;20475;-72
2023/10/29 04:59:07;;;;;;;7.30;4.37;;;10.20;1.00;;;;;;5127477;27;20540;-69
2023/10/29 05:01:34;;;;;;;7.07;3.60;;;10.20;1.00;;;;;;5129622;27;20460;-70
2023/10/29 05:04:00;;;;;;;5.03;3.37;;;10.30;1.00;;;;;;5131199;27;21037;-68
2023/10/29 05:06:27;;;;;;;4.80;3.43;;;10.20;1.00;;;;;;5130423;27;20622;-70
2023/10/29 05:08:56;;;;;;;7.57;4.13;;;10.30;1.00;;;;;;5145918;27;20480;-72
2023/10/29 05:11:23;;;;;;;5.97;4.10;;;10.30;1.00;;;;;;5149586;27;21817;-69
2023/10/29 05:13:50;;;;;;;6.90;4.10;;;10.30;1.00;;;;;;5152927;27;21226;-71
2023/10/29 05:16:20;;;;;;;3.80;3.23;;;10.30;1.00;;;;;;5152389;27;20523;-72
2023/10/29 05:18:47;;;;;;;4.30;3.57;;;10.30;1.00;;;;;;5153808;27;20458;-73
2023/10/29 05:21:13;;;;;;;4.53;3.63;;;10.40;1.00;;;;;;5132149;27;20455;-71
2023/10/29 05:23:41;;;;;;;4.90;3.50;;;10.40;1.00;;;;;;5131113;27;20542;-71
2023/10/29 05:26:08;;;;;;;6.43;3.20;;;10.30;1.00;;;;;;5127234;27;21299;-77
2023/10/29 05:28:35;;;;;;;4.83;3.17;;;10.40;1.00;;;;;;5143060;27;20464;-73
2023/10/29 05:31:02;;;;;;;5.30;3.53;;;10.40;1.00;;;;;;5140833;27;20464;-72
2023/10/29 05:33:31;;;;;;;5.97;3.10;;;10.40;1.00;;;;;;5136173;27;20459;-72
2023/10/29 05:35:58;;;;;;;5.93;3.33;;;10.40;1.00;;;;;;5136540;27;20538;-72
2023/10/29 05:38:25;;;;;;;5.90;4.67;;;10.40;1.00;;;;;;5129082;27;20445;-72
2023/10/29 05:40:52;;;;;;;6.10;3.90;;;10.40;1.00;;;;;;5129743;27;20465;-73
2023/10/29 05:43:19;;;;;;;6.37;4.23;;;10.50;1.00;;;;;;5130197;27;20613;-72
2023/10/29 05:45:46;;;;;;;11.60;4.50;;;10.50;1.00;;;;;;5130687;27;20469;-72
2023/10/29 05:48:13;;;;;;;7.87;5.13;;;10.50;1.00;;;;;;5131366;27;22395;-71
2023/10/29 05:50:41;;;;;;;6.70;4.27;;;10.50;1.00;;;;;;5139005;27;20516;-72
2023/10/29 05:53:08;;;;;;;7.23;4.87;;;10.60;1.00;;;;;;5146933;27;20522;-72
2023/10/29 05:55:36;;;;;;;6.43;4.43;;;10.60;1.00;;;;;;5136521;27;20479;-71
2023/10/29 05:58:03;;;;;;;5.37;3.97;;;10.70;1.00;;;;;;5125499;27;20522;-72
2023/10/29 06:00:30;;;;;;;5.80;5.20;;;10.70;1.00;;;;;;5149755;27;20535;-72
2023/10/29 06:02:57;;;;;;;8.27;4.93;;;10.60;1.00;;;;;;5148652;27;20555;-73
2023/10/29 06:05:24;;;;;;;5.03;3.97;;;10.60;1.00;;;;;;5149815;27;20452;-72
2023/10/29 06:07:53;;;;;;;8.50;4.40;;;10.70;1.00;;;;;;5150610;27;20440;-72
2023/10/29 06:10:19;;;;;;;12.40;5.53;;;10.80;1.00;;;;;;5149824;27;20444;-71
2023/10/29 06:12:46;;;;;;;6.37;4.50;;;10.80;1.00;;;;;;5149339;27;20568;-73
2023/10/29 06:15:13;;;;;;;6.33;3.87;;;10.80;1.00;;;;;;5148956;27;21069;-71
2023/10/29 06:17:41;;;;;;;7.00;4.20;;;10.80;1.00;;;;;;5146976;27;20459;-71
2023/10/29 06:20:10;;;;;;;6.13;4.33;;;10.80;1.00;;;;;;5137329;27;20459;-73
2023/10/29 06:22:37;;;;;;;7.83;4.50;;;10.80;1.00;;;;;;5131140;27;20477;-72
2023/10/29 06:25:09;;;;;;;6.73;3.93;;;10.80;1.00;;;;;;5127117;27;20446;-71
2023/10/29 06:27:36;;;;;;;8.77;4.37;;;10.90;1.00;;;;;;5143518;27;20447;-72
2023/10/29 06:30:03;;;;;;;5.60;3.67;;;10.80;1.00;;;;;;5130548;27;20479;-69
2023/10/29 06:32:31;;;;;;;6.33;3.83;;;10.90;1.00;;;;;;5144470;27;20476;-69
2023/10/29 06:34:58;;;;;;;6.50;4.30;;;11.00;1.00;;;;;;5132193;27;20521;-69
2023/10/29 06:37:24;;;;;;;5.93;3.60;;;11.00;1.00;;;;;;5135617;27;20479;-70
2023/10/29 06:39:52;;;;;;;4.20;3.80;;;11.00;1.00;;;;;;5149983;27;20591;-70
2023/10/29 06:42:20;;;;;;;5.47;3.10;;;11.00;1.00;;;;;;5129695;27;21295;-69
2023/10/29 06:44:47;;;;;;;8.70;4.00;;;11.00;1.00;;;;;;5137330;27;20459;-70
2023/10/29 06:47:14;;;;;;;6.27;2.90;;;11.00;1.00;;;;;;5132137;27;20483;-70
2023/10/29 06:49:41;;;;;;;4.47;2.90;;;11.00;1.00;;;;;;5130669;27;20460;-69
2023/10/29 06:52:09;;;;;;;6.70;4.50;;;11.00;1.00;;;;;;5147932;27;20507;-70
2023/10/29 06:54:36;;;;;;;11.17;4.70;;;11.00;1.00;;;;;;5145656;27;20521;-69
2023/10/29 06:57:04;;;;;;;8.23;4.33;;;11.00;1.00;;;;;;5138167;27;20522;-70
2023/10/29 06:59:33;;;;;;;8.17;4.03;;;11.00;1.00;;;;;;5130500;27;20455;-70
2023/10/29 07:02:01;;;;;;;8.27;3.43;;;11.00;1.00;;;;;;5126646;27;20825;-70
2023/10/29 07:04:29;;;;;;;4.27;3.37;;;11.00;1.00;;;;;;5127085;27;20853;-69
2023/10/29 07:06:56;;;;;;;6.10;3.60;;;11.10;1.00;;;;;;5129746;27;20959;-70
2023/10/29 07:09:22;;;;;;;6.20;4.30;;;11.10;1.00;;;;;;5138329;27;20459;-72
2023/10/29 07:11:49;;;;;;;7.73;3.97;;;11.10;1.00;;;;;;5143948;27;20560;-69
2023/10/29 07:14:16;;;;;;;7.30;4.07;;;11.10;1.00;;;;;;5133554;27;20539;-69
2023/10/29 07:16:45;;;;;;;4.00;3.20;;;11.10;1.00;;;;;;5135479;27;20465;-75
2023/10/29 07:19:12;;;;;;;5.50;3.60;;;11.10;1.00;;;;;;5141711;27;21003;-69
2023/10/29 07:21:39;;;;;;;5.30;3.20;;;11.10;1.00;;;;;;5144548;27;20455;-71
2023/10/29 07:24:07;;;;;;;4.73;3.60;;;11.20;1.00;;;;;;5144043;27;20552;-71
2023/10/29 07:26:34;;;;;;;3.53;2.93;;;11.20;1.00;;;;;;5151335;27;20444;-69
2023/10/29 07:29:01;;;;;;;7.90;3.70;;;11.20;1.00;;;;;;5148331;27;20943;-70
2023/10/29 07:31:28;;;;;;;6.33;3.37;;;11.20;1.00;;;;;;5141675;27;20990;-68
2023/10/29 07:33:57;;;;;;;6.70;4.03;;;11.20;1.00;;;;;;5150091;27;20448;-68
2023/10/29 07:36:23;;;;;;;6.30;3.90;;;11.20;1.00;;;;;;5131740;27;20547;-69
2023/10/29 07:38:50;;;;;;;6.03;3.27;;;11.20;1.00;;;;;;5129880;27;20540;-72
2023/10/29 07:41:19;;;;;;;8.40;3.77;;;11.20;1.00;;;;;;5126911;27;21120;-71
2023/10/29 07:43:46;;;;;;;7.10;3.80;;;11.20;1.00;;;;;;5128928;27;20487;-71
2023/10/29 07:46:13;;;;;;;6.00;3.80;;;11.30;1.00;;;;;;5133960;27;20943;-70
2023/10/29 07:48:40;;;;;;;5.90;3.73;;;11.30;1.00;;;;;;5136397;27;20457;-76
2023/10/29 07:51:10;;;;;;;6.70;4.93;;;11.20;1.00;;;;;;5149840;27;20567;-71
2023/10/29 07:53:37;;;;;;;5.60;3.87;;;11.30;1.00;;;;;;5148640;27;20547;-71
2023/10/29 07:56:08;;;;;;;6.43;3.90;;;11.20;1.00;;;;;;5148084;27;20897;-71
2023/10/29 07:58:36;;;;;;;7.23;4.13;;;11.20;1.00;;;;;;5131526;27;20444;-71
2023/10/29 08:01:03;;;;;;;5.47;3.43;;;11.10;1.00;;;;;;5131028;27;20460;-72
2023/10/29 08:03:30;;;;;;;6.83;4.50;;;11.10;1.00;;;;;;5151557;27;21195;-71
2023/10/29 08:05:56;;;;;;;6.10;3.70;;;11.10;1.00;;;;;;5132260;27;20552;-72
2023/10/29 08:08:25;;;;;;;5.77;3.73;;;11.10;1.00;;;;;;5129446;27;20497;-72
2023/10/29 08:10:52;;;;;;;5.57;3.40;;;11.10;1.00;;;;;;5126705;27;20564;-71
2023/10/29 08:13:18;;;;;;;6.10;3.87;;;11.10;1.00;;;;;;5141208;27;20484;-73
2023/10/29 08:15:45;;;;;;;8.20;3.80;;;11.10;1.00;;;;;;5147944;27;20531;-72
2023/10/29 08:18:13;;;;;;;7.63;4.37;;;11.10;1.00;;;;;;5144885;27;21668;-70
2023/10/29 08:20:40;;;;;;;6.97;3.80;;;11.10;1.00;;;;;;5150487;27;20468;-71
2023/10/29 08:23:07;;;;;;;4.80;3.20;;;11.10;1.00;;;;;;5126431;27;20530;-72
2023/10/29 08:25:38;;;;;;;5.80;4.10;;;11.10;1.00;;;;;;5131471;27;21242;-71
2023/10/29 08:28:07;;;;;;;5.00;3.37;;;11.10;1.00;;;;;;5139614;27;20448;-72
2023/10/29 08:30:34;;;;;;;3.63;3.10;;;11.20;1.00;;;;;;5135971;27;21031;-72
2023/10/29 08:33:01;;;;;;;7.20;3.63;;;11.20;1.00;;;;;;5127364;27;20872;-71
2023/10/29 08:35:28;;;;;;;4.90;3.30;;;11.20;1.00;;;;;;5141948;27;20989;-74
2023/10/29 08:37:55;;;;;;;5.47;3.10;;;11.20;1.00;;;;;;5150743;27;20459;-73
2023/10/29 08:40:22;;;;;;;4.60;3.07;;;11.20;1.00;;;;;;5150223;27;20611;-71
2023/10/29 08:42:50;;;;;;;8.10;3.60;;;11.30;1.00;;;;;;5145528;27;20452;-72
2023/10/29 08:45:18;;;;;;;5.97;3.77;;;11.30;1.00;;;;;;5151735;27;21315;-72
2023/10/29 08:47:45;;;;;;;5.90;3.23;;;11.30;1.00;;;;;;5151142;27;20543;-71
2023/10/29 08:50:12;;;;;;;5.30;3.70;;;11.30;1.00;;;;;;5136464;27;21427;-72
2023/10/29 08:52:39;;;;;;;4.30;3.20;;;11.40;1.00;;;;;;5138294;27;20987;-72
2023/10/29 08:55:06;;;;;;;5.07;3.77;;;11.40;1.00;;;;;;5126601;27;20444;-72
2023/10/29 08:57:35;;;;;;;5.90;3.40;;;11.40;1.00;;;;;;5133275;27;20457;-72
2023/10/29 09:00:04;;;;;;;5.97;3.50;;;11.40;1.00;;;;;;5141280;27;20983;-72
2023/10/29 09:02:31;;;;;;;3.33;2.73;;;11.40;1.00;;;;;;5142680;27;20504;-70
2023/10/29 09:04:58;;;;;;;3.83;3.07;;;11.50;1.00;;;;;;5138632;27;20560;-72
2023/10/29 09:07:27;;;;;;;4.33;2.53;;;11.60;1.00;;;;;;5128389;27;20449;-72
2023/10/29 09:09:54;;;;;;;3.63;2.70;;;11.60;1.00;;;;;;5126858;27;20480;-71
2023/10/29 09:12:22;;;;;;;5.43;3.07;;;11.70;1.00;;;;;;5148949;27;21253;-71
2023/10/29 09:14:49;;;;;;;3.57;2.50;;;11.70;1.00;;;;;;5140141;27;20457;-71
2023/10/29 09:17:17;;;;;;;3.27;2.97;;;11.80;1.00;;;;;;5130136;27;20440;-72
2023/10/29 09:19:44;;;;;;;3.77;2.97;;;11.90;1.00;;;;;;5151082;27;20603;-72
2023/10/29 09:22:11;;;;;;;5.03;2.90;;;11.90;1.00;;;;;;5146335;27;20437;-71
2023/10/29 09:24:38;;;;;;;6.63;4.37;;;12.00;1.00;;;;;;5128592;27;21044;-74
2023/10/29 09:27:05;;;;;;;3.20;2.90;;;12.00;1.00;;;;;;5127309;27;20536;-72
2023/10/29 09:29:33;;;;;;;6.30;3.53;;;12.00;1.00;;;;;;5131705;27;20509;-71
2023/10/29 09:32:04;;;;;;;6.93;4.17;;;12.10;1.00;;;;;;5133165;27;20466;-71
2023/10/29 09:34:32;;;;;;;6.30;2.93;;;12.10;1.00;;;;;;5132165;27;20460;-70
2023/10/29 09:36:59;;;;;;;5.57;2.90;;;12.10;1.00;;;;;;5132649;27;20973;-70
2023/10/29 09:39:27;;;;;;;5.57;2.97;;;12.00;1.00;;;;;;5138509;27;20489;-71
2023/10/29 09:41:55;;;;;;;3.73;2.97;;;12.10;1.00;;;;;;5132224;27;20548;-72
2023/10/29 09:44:22;;;;;;;3.13;2.60;;;12.20;1.00;;;;;;5130392;27;20454;-71
2023/10/29 09:46:58;;;;;;;2.90;2.70;;;12.20;1.00;;;;;;5144687;27;20469;-71
2023/10/29 09:49:25;;;;;;;3.10;2.43;;;12.30;1.00;;;;;;5140623;27;20547;-72
2023/10/29 09:51:53;;;;;;;3.40;2.97;;;12.30;1.00;;;;;;5146028;27;20479;-71
2023/10/29 09:54:20;;;;;;;4.97;2.53;;;12.30;1.00;;;;;;5148015;27;20459;-71
2023/10/29 09:56:47;;;;;;;6.73;2.50;;;12.20;1.00;;;;;;5149469;27;20530;-71
2023/10/29 09:59:14;;;;;;;5.00;2.47;;;12.10;1.00;;;;;;5149652;27;21031;-72
2023/10/29 10:01:40;;;;;;;3.60;2.60;;;12.10;1.00;;;;;;5148306;27;20527;-73
2023/10/29 10:04:07;;;;;;;3.20;2.90;;;12.10;1.00;;;;;;5145630;27;20471;-74
2023/10/29 10:06:37;;;;;;;3.27;2.80;;;12.20;1.00;;;;;;5136398;27;20456;-73
2023/10/29 10:09:06;;;;;;;3.10;2.37;;;12.20;1.00;;;;;;5145463;27;20555;-73
2023/10/29 10:11:33;;;;;;;2.97;2.73;;;12.30;1.00;;;;;;5148581;27;20445;-72
2023/10/29 10:14:00;;;;;;;3.33;2.30;;;12.20;1.00;;;;;;5148651;27;20537;-74
2023/10/29 10:16:27;;;;;;;2.80;2.60;;;12.30;1.00;;;;;;5128924;27;20526;-72
2023/10/29 10:18:55;;;;;;;5.30;2.30;;;12.20;1.00;;;;;;5127037;27;20555;-71
2023/10/29 10:21:24;;;;;;;5.33;3.00;;;12.20;1.00;;;;;;5129427;27;20453;-71
2023/10/29 10:23:52;;;;;;;2.50;2.30;;;12.30;1.00;;;;;;5130134;27;20548;-72
2023/10/29 10:26:32;;;;;;;5.17;2.83;;;12.20;1.00;;;;;;5126424;27;20454;-72
2023/10/29 10:28:59;;;;;;;3.50;2.53;;;12.30;1.00;;;;;;5126739;27;20485;-72
2023/10/29 10:31:27;;;;;;;2.63;2.43;;;12.30;1.00;;;;;;5149160;27;20461;-72
2023/10/29 10:34:10;;;;;;;4.90;2.57;;;12.40;1.00;;;;;;5148558;27;20502;-72
2023/10/29 10:36:37;;;;;;;5.03;2.70;;;12.40;1.00;;;;;;5146886;27;20964;-74
2023/10/29 10:39:05;;;;;;;3.83;2.40;;;12.40;1.00;;;;;;5149666;27;20544;-73
2023/10/29 10:41:44;;;;;;;3.40;3.00;;;12.50;1.00;;;;;;5145911;27;20469;-73
2023/10/29 10:44:13;;;;;;;2.47;2.10;;;12.50;1.00;;;;;;5145769;27;21018;-74
2023/10/29 10:46:46;;;;;;;2.80;2.10;;;12.60;1.00;;;;;;5127239;27;20458;-73
2023/10/29 10:49:14;;;;;;;2.97;2.40;;;12.60;1.00;;;;;;5123988;27;20490;-74
2023/10/29 10:51:41;;;;;;;2.47;1.70;;;12.70;1.00;;;;;;5135165;27;20440;-76
2023/10/29 10:54:08;;;;;;;3.47;2.83;;;12.80;1.00;;;;;;5140147;27;20680;-73
2023/10/29 10:56:37;;;;;;;3.47;2.40;;;12.90;1.00;;;;;;5135884;27;20471;-74
2023/10/29 10:59:07;;;;;;;4.00;2.50;;;13.00;1.00;;;;;;5127370;27;20971;-75
2023/10/29 11:01:35;;;;;;;3.80;2.13;;;13.10;1.00;;;;;;5125127;27;20545;-72
2023/10/29 11:04:03;;;;;;;4.53;2.27;;;13.20;1.00;;;;;;5127201;27;20484;-73
2023/10/29 11:06:30;;;;;;;5.40;2.20;;;13.30;1.00;;;;;;5133485;27;20474;-73
2023/10/29 11:08:58;;;;;;;3.67;1.73;;;13.40;1.00;;;;;;5128648;27;20623;-70
2023/10/29 11:11:29;;;;;;;3.70;1.80;;;13.50;1.00;;;;;;5129359;27;21036;-71
2023/10/29 11:14:12;;;;;;;3.20;2.33;;;13.70;1.00;;;;;;5147131;27;20471;-70
2023/10/29 11:16:50;;;;;;;3.47;2.37;;;13.90;1.00;;;;;;5148079;27;20964;-71
2023/10/29 11:19:43;;;;;;;3.20;1.90;;;14.00;1.00;;;;;;5125818;27;20468;-69
2023/10/29 11:22:27;;;;;;;2.00;1.80;;;14.10;1.00;;;;;;5119045;27;20523;-69
2023/10/29 11:25:34;;;;;;;2.40;1.63;;;14.20;1.00;;;;;;5130170;27;20490;-70
2023/10/29 11:28:01;;;;;;;3.30;1.73;;;14.30;1.00;;;;;;5132502;27;20460;-70
2023/10/29 11:30:29;;;;;;;3.27;2.00;;;14.40;1.00;;;;;;5130727;27;20538;-71
2023/10/29 11:33:16;;;;;;;2.20;1.60;;;14.30;1.00;;;;;;5135283;27;20468;-71
2023/10/29 11:35:43;;;;;;;2.57;2.07;;;14.30;1.00;;;;;;5123254;27;20461;-71
2023/10/29 11:38:29;;;;;;;3.10;2.40;;;14.30;1.00;;;;;;5130149;27;20987;-71
2023/10/29 11:40:56;;;;;;;2.77;1.90;;;14.30;1.00;;;;;;5129437;27;20527;-70
2023/10/29 11:43:23;;;;;;;3.50;1.83;;;14.50;1.00;;;;;;5142211;27;20483;-70
2023/10/29 11:45:59;;;;;;;2.57;1.73;;;14.70;1.00;;;;;;5130306;27;20497;-71
2023/10/29 11:48:28;;;;;;;6.07;2.60;;;14.80;1.00;;;;;;5132457;27;20461;-71
2023/10/29 11:51:21;;;;;;;1.60;1.50;;;14.90;1.00;;;;;;5134348;27;21033;-70
2023/10/29 11:53:48;;;;;;;2.07;1.77;;;14.80;1.00;;;;;;5134581;27;21058;-71
2023/10/29 11:56:17;;;;;;;2.47;2.27;;;14.90;1.00;;;;;;5130225;27;20511;-70
2023/10/29 11:58:44;;;;;;;2.23;1.40;;;14.90;1.00;;;;;;5141513;27;20482;-71
2023/10/29 12:01:18;;;;;;;4.07;1.93;;;14.90;1.00;;;;;;5134520;27;20563;-70
2023/10/29 12:03:51;;;;;;;3.20;1.97;;;15.00;1.00;;;;;;5150601;27;20458;-70
2023/10/29 12:06:18;;;;;;;2.03;1.60;;;15.10;1.00;;;;;;5148697;27;21007;-70
2023/10/29 12:08:44;;;;;;;3.27;1.97;;;15.30;1.00;;;;;;5132952;27;20817;-69
2023/10/29 12:11:13;;;;;;;3.27;1.80;;;15.40;1.00;;;;;;5133065;27;20599;-71
2023/10/29 12:13:41;;;;;;;3.10;2.17;;;15.60;1.00;;;;;;5133817;27;20456;-71
2023/10/29 12:16:09;;;;;;;2.43;2.17;;;15.70;1.00;;;;;;5119288;27;21533;-70
2023/10/29 12:18:39;;;;;;;4.47;1.90;;;15.90;1.00;;;;;;5131318;27;20592;-70
2023/10/29 12:21:07;;;;;;;4.67;2.30;;;16.20;1.00;;;;;;5133499;27;20571;-68
2023/10/29 12:23:35;;;;;;;3.17;1.87;;;16.60;1.00;;;;;;5150372;27;20475;-69
2023/10/29 12:26:04;;;;;;;2.03;1.73;;;16.80;1.00;;;;;;5142429;27;20456;-67
2023/10/29 12:28:33;;;;;;;2.40;1.73;;;16.90;1.00;;;;;;5135427;27;20448;-68
2023/10/29 12:30:59;;;;;;;2.47;1.73;;;17.10;1.00;;;;;;5141694;27;20497;-68
2023/10/29 12:33:29;;;;;;;3.70;1.70;;;17.30;1.00;;;;;;5152857;27;20441;-69
2023/10/29 12:35:59;;;;;;;2.03;1.70;;;17.40;1.00;;;;;;5135203;27;20464;-70
2023/10/29 12:38:26;;;;;;;3.43;1.93;;;17.20;1.00;;;;;;5129528;27;20490;-75
2023/10/29 12:41:08;;;;;;;3.00;1.20;;;17.00;1.00;;;;;;5132399;27;21058;-66
2023/10/29 12:43:40;;;;;;;1.77;1.67;;;16.80;1.00;;;;;;5144847;27;20448;-68
2023/10/29 12:46:08;;;;;;;2.37;1.80;;;16.70;1.00;;;;;;5150120;27;20464;-67
2023/10/29 12:48:36;;;;;;;1.33;1.20;;;16.60;1.00;;;;;;5137774;27;20505;-68
2023/10/29 12:51:05;;;;;;;2.13;1.50;;;16.60;1.00;;;;;;5130664;27;20480;-67
2023/10/29 12:53:32;;;;;;;3.70;1.43;;;16.60;1.00;;;;;;5126298;27;20461;-69
2023/10/29 12:56:01;;;;;;;4.00;1.67;;;16.60;1.00;;;;;;5140458;27;20548;-67
2023/10/29 12:58:29;;;;;;;2.20;1.47;;;16.60;1.00;;;;;;5130075;27;20463;-66
2023/10/29 13:00:59;;;;;;;3.00;1.70;;;16.60;1.00;;;;;;5139365;27;20456;-68
2023/10/29 13:03:26;;;;;;;1.90;1.17;;;16.60;1.00;;;;;;5130754;27;20463;-70